Time;durP1;ratioP1;P1;durP2;ratioP2;P2;SDS_P1;SDS_P2;PMS_P1;PMS_P2;Temp;Humidity;BMP_temperature;BMP_pressure;BME280_temperature;BME280_humidity;BME280_pressure;Samples;Min_cycle;Max_cycle;Signal;HPM_P1;HPM_P2
2022/08/20 00:00:13;;;;;;;6.88;4.63;;;;;;;20.32;91.37;99554.44;5050243;28;20059;-70
2022/08/20 00:02:42;;;;;;;6.90;5.88;;;;;;;20.33;91.52;99549.94;5049539;28;20053;-69
2022/08/20 00:05:09;;;;;;;8.18;7.10;;;;;;;20.36;92.10;99547.00;5049293;28;20051;-69
2022/08/20 00:07:36;;;;;;;12.75;7.15;;;;;;;20.33;91.16;99549.94;5048637;28;20059;-68
2022/08/20 00:10:04;;;;;;;11.82;8.63;;;;;;;20.28;90.13;99554.88;5049561;28;20124;-69
2022/08/20 00:12:31;;;;;;;10.77;7.18;;;;;;;20.25;90.66;99555.16;5049761;28;20053;-69
2022/08/20 00:14:57;;;;;;;7.80;6.90;;;;;;;20.26;90.83;99547.00;5050303;28;20063;-69
2022/08/20 00:17:25;;;;;;;8.57;5.63;;;;;;;20.28;91.07;99550.38;5050438;28;20071;-69
2022/08/20 00:19:52;;;;;;;8.32;7.43;;;;;;;20.29;90.74;99548.56;5050788;28;20041;-69
2022/08/20 00:22:19;;;;;;;6.20;4.55;;;;;;;20.27;91.89;99543.31;5050831;28;20056;-69
2022/08/20 00:24:45;;;;;;;9.65;6.72;;;;;;;20.30;91.57;99550.22;5050636;28;20051;-70
2022/08/20 00:27:12;;;;;;;12.30;7.30;;;;;;;20.30;90.79;99547.53;5049990;28;20053;-70
2022/08/20 00:29:38;;;;;;;7.20;4.80;;;;;;;20.31;90.97;99546.56;5051297;28;20053;-71
2022/08/20 00:32:05;;;;;;;9.68;8.30;;;;;;;20.35;90.54;99543.47;5051392;28;20057;-69
2022/08/20 00:34:33;;;;;;;12.75;8.63;;;;;;;20.33;90.00;99548.13;5050380;28;20048;-70
2022/08/20 00:36:59;;;;;;;8.52;7.63;;;;;;;20.32;90.52;99541.06;5050095;28;20681;-69
2022/08/20 00:39:26;;;;;;;8.65;7.75;;;;;;;20.31;90.87;99542.06;5051467;28;20053;-68
2022/08/20 00:41:52;;;;;;;8.32;7.05;;;;;;;20.30;90.46;99540.34;5048891;28;20411;-70
2022/08/20 00:44:21;;;;;;;7.43;6.38;;;;;;;20.32;90.37;99548.25;5048689;28;20060;-68
2022/08/20 00:46:49;;;;;;;8.23;6.38;;;;;;;20.29;89.55;99540.50;5048027;28;20048;-70
2022/08/20 00:49:20;;;;;;;10.07;6.25;;;;;;;20.30;89.35;99539.50;5048908;28;20052;-70
2022/08/20 00:51:52;;;;;;;7.65;6.82;;;;;;;20.26;89.79;99538.97;5050183;28;20120;-69
2022/08/20 00:54:24;;;;;;;9.23;7.13;;;;;;;20.25;89.88;99537.25;5052473;28;20487;-70
2022/08/20 00:56:56;;;;;;;9.40;7.55;;;;;;;20.22;89.88;99532.22;5051673;28;20056;-69
2022/08/20 00:59:28;;;;;;;9.30;7.43;;;;;;;20.13;91.47;99535.72;5052503;28;20068;-69
2022/08/20 01:01:56;;;;;;;8.45;7.65;;;;;;;20.02;92.85;99542.09;5052509;28;20069;-68
2022/08/20 01:04:25;;;;;;;10.88;7.82;;;;;;;19.96;93.84;99540.00;5052184;28;20474;-69
2022/08/20 01:06:53;;;;;;;8.57;7.78;;;;;;;19.92;94.35;99534.06;5051269;28;20049;-69
2022/08/20 01:09:20;;;;;;;8.48;6.45;;;;;;;19.92;94.58;99538.59;5052282;28;20053;-70
2022/08/20 01:11:46;;;;;;;8.32;7.00;;;;;;;19.90;95.11;99528.00;5052809;28;20053;-69
2022/08/20 01:14:23;;;;;;;8.32;7.53;;;;;;;19.88;96.09;99529.97;5061173;28;20051;-69
2022/08/20 01:16:54;;;;;;;7.35;6.22;;;;;;;19.88;95.77;99526.47;5058048;28;20052;-69
2022/08/20 01:19:24;;;;;;;7.47;6.38;;;;;;;19.87;95.73;99522.94;5053397;28;20052;-69
2022/08/20 01:21:53;;;;;;;8.88;6.85;;;;;;;19.90;95.70;99529.84;5052651;28;20080;-69
2022/08/20 01:24:26;;;;;;;6.93;5.60;;;;;;;19.88;95.46;99527.31;5052634;28;20052;-69
2022/08/20 01:26:54;;;;;;;12.60;7.10;;;;;;;19.85;95.08;99524.91;5052160;28;20057;-69
2022/08/20 01:29:25;;;;;;;8.90;7.47;;;;;;;19.81;94.80;99539.56;5052506;28;20052;-69
2022/08/20 01:31:52;;;;;;;8.88;7.22;;;;;;;19.76;95.39;99533.78;5052390;28;20045;-69
2022/08/20 01:34:20;;;;;;;8.00;7.20;;;;;;;19.76;95.36;99544.47;5053718;28;20047;-68
2022/08/20 01:36:49;;;;;;;9.30;7.53;;;;;;;19.70;95.02;99539.72;5051865;28;20053;-68
2022/08/20 01:39:19;;;;;;;9.45;7.63;;;;;;;19.64;94.70;99541.09;5051576;28;20045;-67
2022/08/20 01:41:58;;;;;;;11.82;7.53;;;;;;;19.62;95.57;99536.88;5051684;28;20446;-69
2022/08/20 01:44:25;;;;;;;7.00;6.30;;;;;;;19.60;95.39;99538.81;5051691;28;20049;-69
2022/08/20 01:46:56;;;;;;;9.60;8.50;;;;;;;19.58;96.23;99541.63;5050681;28;20055;-70
2022/08/20 01:49:24;;;;;;;8.63;7.72;;;;;;;19.56;96.86;99542.75;5051541;28;20048;-71
2022/08/20 01:51:53;;;;;;;16.92;10.05;;;;;;;19.44;97.23;99540.22;5048563;28;20075;-69
2022/08/20 01:54:21;;;;;;;14.55;10.75;;;;;;;19.27;98.38;99536.38;5053755;28;20041;-71
2022/08/20 01:56:57;;;;;;;11.73;10.15;;;;;;;19.19;99.50;99540.72;5031537;28;20049;-69
2022/08/20 01:59:23;;;;;;;12.10;10.13;;;;;;;19.14;100.00;99543.78;5031262;28;20607;-69
2022/08/20 02:01:51;;;;;;;11.75;9.70;;;;;;;19.13;100.00;99542.13;5031518;28;20045;-69
2022/08/20 02:04:19;;;;;;;12.90;10.57;;;;;;;19.14;100.00;99542.94;5031219;28;20077;-71
2022/08/20 02:06:48;;;;;;;13.32;11.38;;;;;;;19.19;100.00;99538.03;5030540;28;20053;-68
2022/08/20 02:09:15;;;;;;;12.25;10.20;;;;;;;19.18;99.97;99539.88;5031381;28;20053;-69
2022/08/20 02:11:42;;;;;;;12.80;11.27;;;;;;;19.16;98.22;99538.31;5038577;28;20492;-69
2022/08/20 02:14:11;;;;;;;14.27;11.57;;;;;;;19.17;98.57;99537.31;5050975;28;20049;-68
2022/08/20 02:16:40;;;;;;;12.13;10.82;;;;;;;19.18;98.41;99533.69;5049939;28;20048;-69
2022/08/20 02:19:14;;;;;;;14.00;11.85;;;;;;;19.17;98.30;99540.00;5050918;28;20087;-70
2022/08/20 02:21:44;;;;;;;12.98;11.73;;;;;;;19.15;98.32;99533.94;5050901;28;20131;-68
2022/08/20 02:24:11;;;;;;;12.10;10.90;;;;;;;19.15;98.09;99537.47;5050390;28;20389;-69
2022/08/20 02:26:38;;;;;;;12.85;11.52;;;;;;;19.15;97.54;99542.81;5050238;28;20057;-69
2022/08/20 02:29:08;;;;;;;12.02;10.55;;;;;;;19.16;97.84;99552.53;5050545;28;20162;-68
2022/08/20 02:31:38;;;;;;;15.02;11.93;;;;;;;19.16;97.98;99541.84;5050822;28;20052;-69
2022/08/20 02:34:08;;;;;;;10.77;9.70;;;;;;;19.18;97.81;99544.38;5050561;28;20046;-68
2022/08/20 02:36:36;;;;;;;14.60;12.15;;;;;;;19.17;97.05;99546.19;5049486;28;20049;-68
2022/08/20 02:39:04;;;;;;;14.23;11.63;;;;;;;19.14;96.15;99545.63;5050422;28;20049;-69
2022/08/20 02:41:30;;;;;;;13.55;11.93;;;;;;;19.11;96.48;99549.41;5050615;28;20053;-71
2022/08/20 02:43:57;;;;;;;13.40;11.60;;;;;;;19.11;96.11;99551.25;5050335;28;20392;-69
2022/08/20 02:46:24;;;;;;;13.15;11.23;;;;;;;19.09;96.34;99562.06;5052051;28;20056;-70
2022/08/20 02:48:52;;;;;;;14.60;13.07;;;;;;;19.05;96.16;99553.47;5050466;28;20048;-71
2022/08/20 02:51:19;;;;;;;12.63;11.05;;;;;;;19.06;97.02;99555.16;5050077;28;20041;-69
2022/08/20 02:53:45;;;;;;;13.00;11.60;;;;;;;19.05;96.80;99564.16;5050467;28;20438;-68
2022/08/20 02:56:12;;;;;;;14.75;12.68;;;;;;;19.02;96.49;99559.06;5049620;28;20049;-68
2022/08/20 02:58:40;;;;;;;13.15;11.82;;;;;;;19.04;96.71;99554.44;5050083;28;20071;-69
2022/08/20 03:01:10;;;;;;;15.63;11.57;;;;;;;19.05;96.52;99561.50;5050142;28;20127;-69
2022/08/20 03:03:37;;;;;;;15.15;12.40;;;;;;;18.99;95.68;99558.50;5050126;28;20098;-69
2022/08/20 03:06:05;;;;;;;13.88;12.48;;;;;;;18.95;96.04;99557.94;5049161;28;20140;-69
2022/08/20 03:08:33;;;;;;;16.83;13.57;;;;;;;18.92;95.99;99565.38;5049366;28;20071;-70
2022/08/20 03:11:00;;;;;;;14.02;12.77;;;;;;;18.85;94.52;99568.59;5050001;28;20049;-70
2022/08/20 03:13:26;;;;;;;15.65;13.68;;;;;;;18.80;94.04;99564.59;5050267;28;20052;-69
2022/08/20 03:15:56;;;;;;;17.20;14.30;;;;;;;18.74;94.53;99563.28;5049112;28;20060;-69
2022/08/20 03:18:25;;;;;;;15.02;12.00;;;;;;;18.71;93.99;99570.75;5049365;28;20048;-68
2022/08/20 03:20:51;;;;;;;15.70;13.05;;;;;;;18.66;94.16;99569.31;5049760;28;20049;-69
2022/08/20 03:23:21;;;;;;;13.95;12.43;;;;;;;18.62;93.58;99565.19;5049580;28;20507;-70
2022/08/20 03:25:48;;;;;;;13.90;11.13;;;;;;;18.60;93.92;99571.66;5048863;28;20045;-70
2022/08/20 03:28:16;;;;;;;13.02;11.80;;;;;;;18.61;94.19;99576.88;5048817;28;20764;-69
2022/08/20 03:30:43;;;;;;;12.23;11.00;;;;;;;18.57;93.47;99570.09;5050224;28;20053;-68
2022/08/20 03:33:10;;;;;;;12.85;11.02;;;;;;;18.56;93.33;99571.09;5049367;28;20057;-70
2022/08/20 03:35:38;;;;;;;13.27;11.27;;;;;;;18.48;92.59;99572.69;5049708;28;20041;-68
2022/08/20 03:38:07;;;;;;;14.73;12.05;;;;;;;18.43;92.79;99573.09;5048417;28;20420;-69
2022/08/20 03:40:36;;;;;;;14.55;10.65;;;;;;;18.40;92.72;99576.03;5049275;28;20063;-68
2022/08/20 03:43:03;;;;;;;15.10;9.90;;;;;;;18.37;93.54;99565.63;5049260;28;20053;-68
2022/08/20 03:45:31;;;;;;;12.70;10.60;;;;;;;18.33;92.92;99574.84;5049564;28;20061;-68
2022/08/20 03:48:00;;;;;;;13.02;10.45;;;;;;;18.29;93.04;99576.94;5049326;28;20748;-69
2022/08/20 03:50:29;;;;;;;12.68;10.88;;;;;;;18.27;92.63;99581.56;5049649;28;20044;-68
2022/08/20 03:52:57;;;;;;;18.77;11.68;;;;;;;18.24;92.97;99593.34;5050410;28;20045;-69
2022/08/20 03:55:25;;;;;;;15.65;11.80;;;;;;;18.24;93.02;99587.16;5049805;28;20106;-68
2022/08/20 03:57:55;;;;;;;13.70;10.23;;;;;;;18.25;93.55;99580.84;5051179;28;20048;-69
2022/08/20 04:00:25;;;;;;;15.02;12.25;;;;;;;18.18;92.72;99569.84;5049907;28;20053;-69
2022/08/20 04:02:52;;;;;;;15.98;12.63;;;;;;;18.12;92.34;99575.72;5049797;28;20548;-71
2022/08/20 04:05:19;;;;;;;18.98;12.35;;;;;;;18.03;92.18;99574.63;5048959;28;20051;-69
2022/08/20 04:07:46;;;;;;;15.25;11.30;;;;;;;18.02;92.77;99570.28;5048104;28;20504;-69
2022/08/20 04:10:13;;;;;;;15.05;12.73;;;;;;;18.01;92.49;99576.59;5049052;28;20045;-68
2022/08/20 04:12:40;;;;;;;14.15;12.13;;;;;;;17.99;92.47;99580.34;5048791;28;20045;-69
2022/08/20 04:15:11;;;;;;;19.42;13.55;;;;;;;17.93;92.36;99589.72;5048864;28;20073;-69
2022/08/20 04:17:40;;;;;;;15.25;12.63;;;;;;;17.90;92.08;99598.00;5048743;28;20136;-69
2022/08/20 04:20:08;;;;;;;15.55;11.38;;;;;;;17.88;92.58;99593.75;5050260;28;20500;-67
2022/08/20 04:22:35;;;;;;;13.27;11.93;;;;;;;17.85;91.50;99596.69;5049673;28;20053;-70
2022/08/20 04:25:02;;;;;;;13.43;11.07;;;;;;;17.76;91.57;99596.41;5049190;28;20041;-69
2022/08/20 04:27:30;;;;;;;14.02;10.95;;;;;;;17.70;91.60;99596.09;5050779;28;20057;-68
2022/08/20 04:29:56;;;;;;;20.92;13.07;;;;;;;17.64;91.73;99608.09;5052971;28;20183;-68
2022/08/20 04:32:24;;;;;;;14.32;12.57;;;;;;;17.58;91.50;99600.59;5052667;28;20055;-69
2022/08/20 04:34:51;;;;;;;14.90;12.50;;;;;;;17.56;92.13;99602.53;5052702;28;20543;-69
2022/08/20 04:37:21;;;;;;;13.93;11.73;;;;;;;17.54;92.10;99609.81;5051984;28;20055;-69
2022/08/20 04:40:52;;;;;;;14.15;12.68;;;;;;;17.49;91.86;99606.66;5055113;28;20479;-69
2022/08/20 04:42:35;;;;;;;16.75;12.52;;;;;;;17.49;92.04;99615.50;5052527;28;20057;-69
2022/08/20 04:45:02;;;;;;;16.75;13.52;;;;;;;17.48;91.85;99611.16;5052679;28;20049;-67
2022/08/20 04:47:30;;;;;;;15.20;12.77;;;;;;;17.49;91.99;99612.00;5051769;28;20049;-70
2022/08/20 04:49:59;;;;;;;15.48;13.43;;;;;;;17.49;92.25;99620.00;5052505;28;20079;-69
2022/08/20 04:52:26;;;;;;;20.17;13.90;;;;;;;17.50;92.05;99613.69;5052163;28;20045;-68
2022/08/20 04:54:55;;;;;;;15.30;13.38;;;;;;;17.50;91.95;99619.00;5052327;28;20052;-68
2022/08/20 04:57:22;;;;;;;15.45;13.93;;;;;;;17.51;91.91;99623.38;5051535;28;20048;-70
2022/08/20 04:59:48;;;;;;;16.85;13.27;;;;;;;17.52;91.95;99623.28;5052336;28;20045;-69
2022/08/20 05:02:17;;;;;;;15.05;13.18;;;;;;;17.53;91.65;99632.13;5052152;28;20063;-69
2022/08/20 05:04:45;;;;;;;18.20;12.20;;;;;;;17.53;91.40;99635.63;5051923;28;20143;-69
2022/08/20 05:07:12;;;;;;;14.98;13.35;;;;;;;17.52;91.73;99633.94;5051190;28;20056;-68
2022/08/20 05:09:39;;;;;;;15.05;13.05;;;;;;;17.49;90.86;99628.84;5052323;28;20045;-69
2022/08/20 05:12:06;;;;;;;14.57;12.88;;;;;;;17.46;90.84;99630.91;5052129;28;20049;-70
2022/08/20 05:14:32;;;;;;;18.42;15.60;;;;;;;17.45;90.84;99635.41;5051767;28;20059;-68
2022/08/20 05:17:03;;;;;;;15.38;12.38;;;;;;;17.44;91.26;99641.69;5051287;28;20059;-68
2022/08/20 05:19:31;;;;;;;18.52;15.43;;;;;;;17.38;90.51;99642.19;5051888;28;20087;-67
2022/08/20 05:21:59;;;;;;;18.98;15.77;;;;;;;17.34;90.53;99643.38;5051888;28;20412;-68
2022/08/20 05:24:26;;;;;;;21.08;16.35;;;;;;;17.32;90.39;99650.66;5051156;28;20393;-68
2022/08/20 05:26:54;;;;;;;20.33;15.63;;;;;;;17.31;90.58;99657.81;5051017;28;20055;-69
2022/08/20 05:29:22;;;;;;;24.38;18.40;;;;;;;17.32;91.54;99658.66;5050692;28;20045;-70
2022/08/20 05:31:49;;;;;;;18.70;15.32;;;;;;;17.27;90.65;99660.84;5050438;28;20512;-70
2022/08/20 05:34:16;;;;;;;16.95;14.70;;;;;;;17.27;91.41;99664.34;5050318;28;20059;-68
2022/08/20 05:36:45;;;;;;;20.10;16.15;;;;;;;17.31;91.46;99668.47;5049365;28;20048;-69
2022/08/20 05:39:15;;;;;;;21.02;16.55;;;;;;;17.37;90.79;99669.78;5050149;28;20519;-69
2022/08/20 05:41:42;;;;;;;20.48;18.00;;;;;;;17.43;90.73;99676.47;5050431;28;20144;-69
2022/08/20 05:44:12;;;;;;;18.85;15.27;;;;;;;17.49;90.49;99676.81;5050575;28;20049;-69
2022/08/20 05:46:39;;;;;;;19.48;16.42;;;;;;;17.53;90.04;99667.59;5049605;28;20051;-69
2022/08/20 05:49:06;;;;;;;20.67;17.92;;;;;;;17.54;90.11;99669.28;5050316;28;20103;-69
2022/08/20 05:51:35;;;;;;;16.83;15.02;;;;;;;17.56;90.01;99671.84;5050079;28;20141;-69
2022/08/20 05:54:02;;;;;;;20.50;17.77;;;;;;;17.57;89.62;99670.84;5050096;28;20052;-68
2022/08/20 05:56:31;;;;;;;21.58;16.35;;;;;;;17.57;89.52;99670.84;5049168;28;20492;-69
2022/08/20 05:59:00;;;;;;;19.98;15.82;;;;;;;17.59;88.97;99674.25;5050107;28;20131;-69
2022/08/20 06:01:27;;;;;;;19.92;15.10;;;;;;;17.57;88.69;99671.72;5049637;28;20048;-69
2022/08/20 06:06:37;;;;;;;19.60;16.63;;;;;;;17.59;87.52;99677.75;5048760;28;20179;-68
2022/08/20 06:09:04;;;;;;;20.02;16.05;;;;;;;17.53;87.31;99674.75;5049648;28;20064;-70
2022/08/20 06:11:32;;;;;;;20.60;15.50;;;;;;;17.47;86.91;99675.25;5049688;28;20136;-70
2022/08/20 06:13:59;;;;;;;24.10;15.57;;;;;;;17.42;86.77;99669.44;5049737;28;20060;-69
2022/08/20 06:16:26;;;;;;;17.63;14.40;;;;;;;17.39;86.92;99675.84;5048681;28;20073;-69
2022/08/20 06:18:52;;;;;;;18.45;15.75;;;;;;;17.36;86.68;99682.28;5049768;28;20048;-70
2022/08/20 06:21:19;;;;;;;19.50;14.45;;;;;;;17.37;86.91;99678.63;5049642;28;20463;-70
2022/08/20 06:23:45;;;;;;;18.33;16.42;;;;;;;17.39;86.28;99682.03;5049328;28;20053;-69
2022/08/20 06:26:12;;;;;;;20.63;15.23;;;;;;;17.38;86.91;99688.34;5048680;28;20055;-69
2022/08/20 06:28:40;;;;;;;18.67;16.27;;;;;;;17.39;87.21;99689.19;5010473;28;1127211;-70
2022/08/20 06:31:08;;;;;;;20.83;16.42;;;;;;;17.44;87.20;99695.00;5050587;28;20705;-68
2022/08/20 06:33:35;;;;;;;21.50;17.25;;;;;;;17.49;86.04;99695.47;5050667;28;20053;-68
2022/08/20 06:36:05;;;;;;;18.98;13.88;;;;;;;17.48;86.00;99698.28;5049933;28;20095;-69
2022/08/20 06:38:32;;;;;;;19.73;15.82;;;;;;;17.46;85.68;99692.22;5050605;28;20259;-68
2022/08/20 06:40:59;;;;;;;19.35;16.20;;;;;;;17.44;85.56;99696.81;5050993;28;20057;-69
2022/08/20 06:43:26;;;;;;;19.92;14.80;;;;;;;17.43;86.01;99698.63;5051851;28;20048;-68
2022/08/20 06:45:56;;;;;;;21.55;17.58;;;;;;;17.46;85.65;99701.03;5051678;28;20056;-68
2022/08/20 06:48:23;;;;;;;19.17;15.13;;;;;;;17.49;85.90;99690.13;5053032;28;20135;-68
2022/08/20 06:50:50;;;;;;;21.50;17.00;;;;;;;17.58;86.04;99697.41;5050158;28;20053;-68
2022/08/20 06:53:20;;;;;;;21.33;14.85;;;;;;;17.56;85.00;99690.50;5050686;28;20148;-68
2022/08/20 06:55:51;;;;;;;20.88;15.23;;;;;;;17.60;85.33;99692.81;5050246;28;20049;-68
2022/08/20 06:58:19;;;;;;;17.98;14.07;;;;;;;17.69;85.27;99696.53;5053723;28;20053;-70
2022/08/20 07:00:47;;;;;;;20.38;14.43;;;;;;;17.74;85.43;99698.84;5054618;28;20051;-69
2022/08/20 07:03:15;;;;;;;20.10;14.07;;;;;;;17.78;84.68;99698.47;5056015;28;20053;-68
2022/08/20 07:05:44;;;;;;;19.67;14.50;;;;;;;17.85;85.20;99693.53;5056321;28;20135;-68
2022/08/20 07:08:12;;;;;;;20.13;13.82;;;;;;;17.90;84.33;99701.16;5049310;28;20185;-68
2022/08/20 07:10:40;;;;;;;20.98;15.48;;;;;;;17.99;83.69;99700.38;5049892;28;20152;-69
2022/08/20 07:13:07;;;;;;;17.83;13.55;;;;;;;18.02;83.31;99702.84;5049739;28;20048;-68
2022/08/20 07:15:34;;;;;;;15.93;13.90;;;;;;;18.06;82.90;99700.75;5049554;28;20127;-69
2022/08/20 07:18:03;;;;;;;21.40;13.90;;;;;;;18.06;83.15;99704.25;5048694;28;20045;-68
2022/08/20 07:20:34;;;;;;;17.75;12.88;;;;;;;18.10;82.56;99705.72;5049703;28;20063;-68
2022/08/20 07:23:01;;;;;;;18.35;13.05;;;;;;;18.10;82.25;99697.72;5049741;28;20045;-69
2022/08/20 07:25:29;;;;;;;17.90;13.20;;;;;;;18.10;81.92;99697.72;5049334;28;20484;-70
2022/08/20 07:28:01;;;;;;;20.58;12.73;;;;;;;18.06;81.40;99706.94;5048352;28;20049;-69
2022/08/20 07:33:09;;;;;;;17.17;12.23;;;;;;;17.98;81.65;99712.03;5015894;28;20129;-69
2022/08/20 07:35:37;;;;;;;14.80;10.40;;;;;;;18.12;87.23;99711.78;5050176;28;20132;-53
2022/08/20 07:38:03;;;;;;;16.48;10.18;;;;;;;18.53;83.32;99715.50;5048929;28;20049;-53
2022/08/20 07:40:34;;;;;;;13.93;10.40;;;;;;;18.71;80.85;99718.47;5049231;28;20051;-52
2022/08/20 07:43:02;;;;;;;18.65;10.88;;;;;;;18.78;79.53;99726.81;5049336;28;20144;-52
2022/08/20 07:45:30;;;;;;;17.42;10.40;;;;;;;18.95;78.83;99720.91;5049449;28;20155;-54
2022/08/20 07:48:06;;;;;;;13.02;9.43;;;;;;;19.01;78.22;99722.22;5048788;28;20490;-50
2022/08/20 07:50:33;;;;;;;15.38;10.18;;;;;;;19.07;77.42;99721.66;5049242;28;20048;-53
2022/08/20 07:53:01;;;;;;;19.33;9.10;;;;;;;19.13;76.58;99725.66;5049161;28;20139;-49
2022/08/20 07:55:28;;;;;;;14.93;9.65;;;;;;;19.14;75.78;99730.00;5049047;28;20040;-53
2022/08/20 07:57:56;;;;;;;15.10;7.60;;;;;;;19.18;76.11;99731.47;5048434;28;20144;-48
2022/08/20 08:00:25;;;;;;;18.45;8.20;;;;;;;19.22;75.65;99733.75;5048400;28;20053;-53
2022/08/20 08:02:51;;;;;;;15.80;8.80;;;;;;;19.24;75.41;99734.44;5048984;28;20423;-55
2022/08/20 08:05:18;;;;;;;16.58;9.80;;;;;;;19.32;75.00;99736.47;5048909;28;20065;-49
2022/08/20 08:07:46;;;;;;;14.63;10.07;;;;;;;19.38;74.11;99737.75;5047927;28;20056;-54
2022/08/20 08:10:18;;;;;;;20.40;8.75;;;;;;;19.51;74.08;99739.19;5048727;28;20400;-58
2022/08/20 08:12:49;;;;;;;18.48;9.48;;;;;;;19.70;72.84;99737.63;5061935;28;20059;-50
2022/08/20 08:15:18;;;;;;;11.57;8.18;;;;;;;19.80;72.49;99729.66;5062568;28;20048;-54
2022/08/20 08:17:48;;;;;;;16.27;9.57;;;;;;;19.81;72.15;99726.81;5048405;28;20416;-47
2022/08/20 08:20:15;;;;;;;15.27;8.18;;;;;;;19.91;71.87;99732.19;5048930;28;20049;-49
2022/08/20 08:22:42;;;;;;;14.70;9.32;;;;;;;19.99;71.03;99737.72;5048912;28;20144;-51
2022/08/20 08:25:10;;;;;;;13.23;8.25;;;;;;;20.12;71.19;99745.50;5049079;28;20051;-52
2022/08/20 08:27:37;;;;;;;13.55;8.18;;;;;;;20.21;70.51;99742.00;5048145;28;20056;-52
2022/08/20 08:30:09;;;;;;;15.63;8.30;;;;;;;20.11;70.79;99746.50;5048924;28;20059;-51
2022/08/20 08:32:36;;;;;;;17.23;8.02;;;;;;;20.15;71.00;99743.38;5049209;28;20056;-51
2022/08/20 08:35:07;;;;;;;10.52;7.68;;;;;;;20.24;70.79;99736.38;5049098;28;20045;-51
2022/08/20 08:37:34;;;;;;;16.92;8.52;;;;;;;20.35;70.58;99733.56;5048499;28;20059;-53
2022/08/20 08:40:01;;;;;;;21.30;9.20;;;;;;;20.56;69.96;99736.13;5049158;28;20045;-50
2022/08/20 08:42:36;;;;;;;15.20;8.35;;;;;;;20.82;68.91;99729.34;5048792;28;20049;-53
2022/08/20 08:45:08;;;;;;;10.77;7.68;;;;;;;20.95;68.47;99730.75;5049699;28;20041;-49
2022/08/20 08:47:40;;;;;;;15.23;9.32;;;;;;;20.85;67.97;99739.81;5050563;28;20107;-69
2022/08/20 08:50:09;;;;;;;20.00;9.98;;;;;;;20.83;68.23;99747.97;5049292;28;20148;-71
2022/08/20 08:52:40;;;;;;;14.68;9.80;;;;;;;20.59;68.51;99741.22;5049444;28;20107;-70
2022/08/20 08:55:11;;;;;;;16.80;8.98;;;;;;;20.65;69.42;99742.50;5049228;28;20519;-51
2022/08/20 08:57:37;;;;;;;14.95;8.35;;;;;;;20.79;68.68;99755.44;5048083;28;20056;-48
2022/08/20 09:00:10;;;;;;;16.52;9.82;;;;;;;20.92;68.03;99751.63;5048905;28;20056;-51
2022/08/20 09:02:41;;;;;;;16.20;9.75;;;;;;;21.04;67.83;99758.50;5048614;28;20143;-49
2022/08/20 09:05:16;;;;;;;19.20;9.18;;;;;;;21.11;67.18;99761.47;5048660;28;20061;-51
2022/08/20 09:07:48;;;;;;;17.55;10.05;;;;;;;21.22;69.51;99756.81;5047684;28;20099;-50
2022/08/20 09:10:15;;;;;;;17.83;10.02;;;;;;;21.40;68.94;99759.59;5048553;28;20073;-50
2022/08/20 09:12:43;;;;;;;20.75;9.27;;;;;;;21.39;67.84;99757.94;5049847;28;20060;-49
2022/08/20 09:15:11;;;;;;;16.02;8.35;;;;;;;21.36;67.82;99766.25;5051848;28;20130;-62
2022/08/20 09:17:38;;;;;;;13.32;9.52;;;;;;;21.34;66.51;99760.16;5050934;28;20045;-64
2022/08/20 09:20:06;;;;;;;17.08;9.98;;;;;;;21.27;67.03;99756.38;5049962;28;20048;-65
2022/08/20 09:22:33;;;;;;;19.80;9.70;;;;;;;21.43;66.44;99751.25;5045097;28;20053;-48
2022/08/20 09:25:02;;;;;;;16.77;9.50;;;;;;;21.81;65.83;99759.34;5052034;28;20056;-50
2022/08/20 09:27:30;;;;;;;17.58;8.90;;;;;;;22.11;64.54;99755.50;5050703;28;20049;-47
2022/08/20 09:29:56;;;;;;;16.40;8.98;;;;;;;22.65;62.50;99753.72;5050513;28;20086;-51
2022/08/20 09:32:25;;;;;;;14.88;7.97;;;;;;;22.78;61.98;99763.25;5044183;28;20052;-51
2022/08/20 09:34:55;;;;;;;16.70;8.93;;;;;;;22.61;61.72;99765.75;5051727;28;20049;-52
2022/08/20 09:37:22;;;;;;;12.15;7.40;;;;;;;23.30;60.19;99769.53;5051004;28;20098;-52
2022/08/20 09:39:49;;;;;;;14.80;8.90;;;;;;;23.11;60.15;99764.38;5051745;28;20496;-49
2022/08/20 09:42:18;;;;;;;12.82;8.10;;;;;;;22.97;60.97;99770.28;5051350;28;20118;-50
2022/08/20 09:44:45;;;;;;;12.05;7.75;;;;;;;22.83;61.35;99769.81;5051718;28;20052;-61
2022/08/20 09:47:11;;;;;;;13.00;8.20;;;;;;;22.63;61.70;99771.00;5051320;28;20040;-60
2022/08/20 09:49:39;;;;;;;15.02;8.20;;;;;;;22.55;61.12;99762.88;5052081;28;20127;-56
2022/08/20 09:52:08;;;;;;;17.75;9.52;;;;;;;22.34;62.18;99763.97;5051148;28;20164;-57
2022/08/20 09:54:36;;;;;;;15.85;8.30;;;;;;;22.20;62.84;99769.88;5031124;28;20057;-60
2022/08/20 09:57:05;;;;;;;17.13;7.00;;;;;;;22.15;63.16;99773.00;5030640;28;20049;-58
2022/08/20 09:59:33;;;;;;;12.65;7.22;;;;;;;22.06;62.96;99766.66;5031541;28;20501;-62
2022/08/20 10:02:00;;;;;;;17.23;8.38;;;;;;;22.64;61.65;99770.00;5031674;28;20055;-65
2022/08/20 10:04:27;;;;;;;23.52;9.25;;;;;;;22.91;60.73;99761.84;5031836;28;20058;-63
2022/08/20 10:06:55;;;;;;;15.55;8.73;;;;;;;23.00;60.26;99764.63;5030958;28;20124;-67
2022/08/20 10:09:22;;;;;;;17.85;8.80;;;;;;;22.87;59.92;99759.63;5031317;28;20049;-70
2022/08/20 10:11:49;;;;;;;22.70;10.20;;;;;;;22.62;61.04;99761.22;5031448;28;20424;-70
2022/08/20 10:14:15;;;;;;;15.70;10.15;;;;;;;23.11;59.20;99772.44;5031325;28;20084;-70
2022/08/20 10:16:42;;;;;;;21.73;10.45;;;;;;;24.54;54.70;99765.56;5057365;28;20499;-70
2022/08/20 10:19:09;;;;;;;22.02;9.77;;;;;;;25.64;52.02;99764.16;5071643;28;20091;-71
2022/08/20 10:21:35;;;;;;;15.60;8.40;;;;;;;25.81;50.55;99759.56;5066091;28;20047;-71
2022/08/20 10:24:03;;;;;;;16.40;9.13;;;;;;;25.20;51.01;99761.06;5051473;28;20049;-69
2022/08/20 10:26:30;;;;;;;22.48;9.82;;;;;;;26.03;49.35;99765.25;5052434;28;20045;-71
2022/08/20 10:28:57;;;;;;;16.17;9.27;;;;;;;26.22;49.28;99764.81;5051460;28;20135;-70
2022/08/20 10:31:23;;;;;;;16.42;9.43;;;;;;;26.46;47.43;99765.66;5051105;28;20059;-70
2022/08/20 10:33:50;;;;;;;15.73;7.95;;;;;;;27.17;44.96;99767.19;5051480;28;20076;-70
2022/08/20 10:36:18;;;;;;;18.10;9.23;;;;;;;27.51;44.20;99760.44;5054948;28;20443;-71
2022/08/20 10:38:45;;;;;;;16.10;9.02;;;;;;;27.79;43.78;99767.91;5058043;28;20053;-71
2022/08/20 10:41:13;;;;;;;16.05;8.60;;;;;;;28.34;41.70;99761.13;5051663;28;20053;-69
2022/08/20 10:43:39;;;;;;;20.35;9.73;;;;;;;28.47;40.90;99765.88;5050869;28;20145;-70
2022/08/20 10:46:06;;;;;;;17.00;10.15;;;;;;;28.62;41.15;99768.53;5049827;28;20053;-69
2022/08/20 10:48:33;;;;;;;24.17;11.27;;;;;;;28.35;41.81;99765.50;5049920;28;20496;-68
2022/08/20 10:51:00;;;;;;;15.98;9.38;;;;;;;28.23;41.48;99764.31;5050532;28;20056;-71
2022/08/20 10:53:26;;;;;;;15.50;9.90;;;;;;;27.59;42.50;99765.78;5050742;28;20053;-70
2022/08/20 10:55:53;;;;;;;17.85;8.77;;;;;;;27.23;43.82;99767.50;5049780;28;20539;-72
2022/08/20 10:58:21;;;;;;;21.38;9.68;;;;;;;26.50;45.14;99773.25;5050012;28;20045;-69
2022/08/20 11:00:48;;;;;;;14.10;7.95;;;;;;;26.33;46.56;99775.19;5050133;28;20045;-58
2022/08/20 11:03:14;;;;;;;19.40;8.63;;;;;;;26.17;45.63;99774.47;5049998;28;20060;-59
2022/08/20 11:05:41;;;;;;;16.40;9.05;;;;;;;25.62;44.98;99770.75;5050010;28;20049;-55
2022/08/20 11:08:08;;;;;;;16.80;9.20;;;;;;;25.32;47.01;99775.88;5049571;28;20045;-61
2022/08/20 11:10:37;;;;;;;13.85;9.75;;;;;;;24.95;47.00;99769.13;5049903;28;20299;-64
2022/08/20 11:13:05;;;;;;;13.05;8.52;;;;;;;24.79;47.59;99774.53;5050151;28;20136;-61
2022/08/20 11:15:36;;;;;;;22.45;9.40;;;;;;;24.94;47.21;99778.25;5049587;28;20759;-58
2022/08/20 11:18:03;;;;;;;17.20;10.38;;;;;;;24.85;47.67;99776.56;5049171;28;20049;-59
2022/08/20 11:20:30;;;;;;;15.57;8.95;;;;;;;24.73;47.74;99775.19;5049529;28;20424;-60
2022/08/20 11:22:58;;;;;;;21.33;9.02;;;;;;;24.73;47.37;99776.03;5049896;28;20171;-59
2022/08/20 11:25:25;;;;;;;14.80;8.38;;;;;;;24.62;47.64;99776.38;5049447;28;20041;-61
2022/08/20 11:27:54;;;;;;;16.10;8.07;;;;;;;24.71;47.30;99777.22;5049164;28;20079;-65
2022/08/20 11:30:23;;;;;;;15.50;7.60;;;;;;;24.76;46.46;99785.66;5049562;28;20053;-63